createdAt,value
2023-04-04T00:02:19.023Z,99564.83
2023-04-04T00:07:21.419Z,99561.83
2023-04-04T00:12:26.691Z,99553.75
2023-04-04T00:17:30.423Z,99551.67
2023-04-04T00:22:32.169Z,99550.31
2023-04-04T00:27:33.865Z,99554.15
2023-04-04T00:32:35.793Z,99547.04
2023-04-04T00:37:38.137Z,99551.30
2023-04-04T00:42:40.009Z,99549.50
2023-04-04T00:47:43.599Z,99551.73
2023-04-04T00:52:45.486Z,99553.30
2023-04-04T00:57:48.052Z,99552.70
2023-04-04T01:02:50.700Z,99556.08
2023-04-04T01:07:52.772Z,99555.01
2023-04-04T01:12:55.482Z,99551.37
2023-04-04T01:18:01.895Z,99553.64
2023-04-04T01:23:06.684Z,99552.01
2023-04-04T01:28:09.751Z,99550.06
2023-04-04T01:33:22.616Z,99553.88
2023-04-04T01:38:35.484Z,99559.65
2023-04-04T01:43:37.567Z,99560.17
2023-04-04T01:48:39.850Z,99562.69
2023-04-04T01:53:42.919Z,99560.53
2023-04-04T01:58:44.886Z,99558.84
2023-04-04T02:03:47.575Z,99565.69
2023-04-04T02:08:49.382Z,99565.01
2023-04-04T02:13:51.539Z,99562.60
2023-04-04T02:18:54.026Z,99563.30
2023-04-04T02:23:55.744Z,99567.77
2023-04-04T02:28:57.419Z,99569.71
2023-04-04T02:33:59.211Z,99575.05
2023-04-04T02:39:01.159Z,99569.74
2023-04-04T02:44:05.361Z,99571.08
2023-04-04T02:49:07.413Z,99571.48
2023-04-04T02:54:10.177Z,99571.13
2023-04-04T02:59:15.130Z,99570.42
2023-04-04T03:04:19.428Z,99570.50
2023-04-04T03:09:21.199Z,99571.39
2023-04-04T03:14:23.038Z,99576.48
2023-04-04T03:19:25.009Z,99576.16
2023-04-04T03:24:28.485Z,99582.05
2023-04-04T03:29:30.130Z,99581.80
2023-04-04T03:34:32.976Z,99578.42
2023-04-04T03:39:35.376Z,99577.76
2023-04-04T03:44:42.628Z,99581.02
2023-04-04T03:49:51.537Z,99577.06
2023-04-04T03:54:53.429Z,99574.16
2023-04-04T03:59:55.091Z,99572.73
2023-04-04T04:04:57.486Z,99571.09
2023-04-04T04:09:59.553Z,99569.22
2023-04-04T04:15:01.927Z,99565.48
2023-04-04T04:20:10.332Z,99555.89
2023-04-04T04:25:17.818Z,99557.99
2023-04-04T04:30:26.923Z,99561.16
2023-04-04T04:35:28.984Z,99555.13
2023-04-04T04:40:31.801Z,99554.89
2023-04-04T04:45:50.802Z,99560.92
2023-04-04T04:50:55.042Z,99558.39
2023-04-04T04:56:06.076Z,99562.00
2023-04-04T05:01:09.429Z,99560.05
2023-04-04T05:06:13.858Z,99560.36
2023-04-04T05:11:15.951Z,99566.20
2023-04-04T05:16:17.977Z,99571.29
2023-04-04T05:21:20.877Z,99571.00
2023-04-04T05:26:25.043Z,99572.62
2023-04-04T05:31:29.000Z,99573.73
2023-04-04T05:36:31.522Z,99546.63
2023-04-04T05:41:37.636Z,99575.69
2023-04-04T05:46:45.701Z,99590.23
2023-04-04T05:51:47.646Z,99587.76
2023-04-04T05:56:50.930Z,99583.33
2023-04-04T06:02:01.367Z,99579.02
2023-04-04T06:07:04.078Z,99584.36
2023-04-04T06:12:30.639Z,99579.52
2023-04-04T06:17:33.112Z,99584.71
2023-04-04T06:22:35.498Z,99580.15
2023-04-04T06:27:38.096Z,99572.30
2023-04-04T06:32:42.471Z,99570.63
2023-04-04T06:37:48.326Z,99569.73
2023-04-04T06:42:57.914Z,99567.33
2023-04-04T06:48:03.656Z,99571.58
2023-04-04T06:53:08.623Z,99565.35
2023-04-04T06:58:10.507Z,99570.16
2023-04-04T07:03:12.276Z,99569.96
2023-04-04T07:08:14.410Z,99565.17
2023-04-04T07:13:16.768Z,99565.11
2023-04-04T07:18:18.532Z,99572.33
2023-04-04T07:23:20.257Z,99574.84
2023-04-04T07:28:22.071Z,99570.02
2023-04-04T07:33:23.776Z,99567.71
2023-04-04T07:38:25.582Z,99571.76
2023-04-04T07:43:27.361Z,99570.23
2023-04-04T07:48:29.051Z,99576.20
2023-04-04T07:53:49.458Z,99570.89
2023-04-04T07:58:51.171Z,99574.90
2023-04-04T08:03:53.760Z,99568.89
2023-04-04T08:08:55.545Z,99567.60
2023-04-04T08:13:57.188Z,99568.08
2023-04-04T08:19:00.058Z,99569.46
2023-04-04T08:24:02.001Z,99560.13
2023-04-04T08:29:03.911Z,99560.70
2023-04-04T08:34:07.803Z,99523.21
2023-04-04T08:39:09.717Z,99551.96
2023-04-04T08:44:20.435Z,99547.98
2023-04-04T08:49:24.044Z,99537.48
2023-04-04T08:54:26.575Z,99528.88
2023-04-04T08:59:28.855Z,99534.49
2023-04-04T09:04:31.853Z,99533.55
2023-04-04T09:09:34.292Z,99533.13
2023-04-04T09:14:39.220Z,99524.02
2023-04-04T09:19:40.889Z,99537.77
2023-04-04T09:24:43.803Z,99532.06
2023-04-04T09:29:45.716Z,99528.23
2023-04-04T09:34:47.978Z,99524.85
2023-04-04T09:39:49.804Z,99530.70
2023-04-04T09:44:55.001Z,99527.14
2023-04-04T09:50:01.373Z,99526.05
2023-04-04T09:55:05.304Z,99529.66
2023-04-04T10:00:09.263Z,99527.74
2023-04-04T10:05:11.395Z,99537.69
2023-04-04T10:10:13.962Z,99531.27
2023-04-04T10:15:16.478Z,99524.79
2023-04-04T10:20:19.126Z,99525.33
2023-04-04T10:25:20.784Z,99518.65
2023-04-04T10:30:22.495Z,99523.05
2023-04-04T10:35:25.513Z,99509.84
2023-04-04T10:40:33.246Z,99519.23
2023-04-04T10:45:38.725Z,99515.70
2023-04-04T10:50:41.896Z,99514.93
2023-04-04T10:55:46.316Z,99512.83
2023-04-04T11:00:54.951Z,99520.34
2023-04-04T11:06:01.782Z,99523.08
2023-04-04T11:11:09.637Z,99516.73
2023-04-04T11:16:19.296Z,99515.09
2023-04-04T11:21:24.881Z,99508.07
2023-04-04T11:26:26.600Z,99515.40
2023-04-04T11:31:34.781Z,99511.27
2023-04-04T11:36:44.361Z,99502.52
2023-04-04T11:41:53.423Z,99495.53
2023-04-04T11:46:57.235Z,99503.94
2023-04-04T11:51:58.962Z,99496.05
2023-04-04T11:57:01.610Z,99497.10
2023-04-04T12:02:09.110Z,99500.23
2023-04-04T12:07:13.776Z,99492.85
2023-04-04T12:12:16.472Z,99495.48
2023-04-04T12:17:18.322Z,99499.73
2023-04-04T12:22:20.995Z,99491.00
2023-04-04T12:27:22.868Z,99491.95
2023-04-04T12:32:24.778Z,99493.31
2023-04-04T12:37:29.584Z,99497.09
2023-04-04T12:42:32.005Z,99494.27
2023-04-04T12:47:34.043Z,99505.23
2023-04-04T12:52:39.669Z,99502.33
2023-04-04T12:57:41.913Z,99495.90
2023-04-04T13:02:46.630Z,99495.65
2023-04-04T13:07:48.624Z,99500.02
2023-04-04T13:13:01.090Z,99502.07
2023-04-04T13:18:18.124Z,99506.69
2023-04-04T13:23:21.514Z,99509.95
2023-04-04T13:28:23.190Z,99516.23
2023-04-04T13:33:24.889Z,99512.05
2023-04-04T13:38:27.966Z,99509.11
2023-04-04T13:43:29.689Z,99506.54
2023-04-04T13:48:31.539Z,99508.27
2023-04-04T13:53:33.237Z,99509.14
2023-04-04T13:58:35.073Z,99506.52
2023-04-04T14:03:37.324Z,99505.70
2023-04-04T14:08:39.694Z,99499.50
2023-04-04T14:13:41.838Z,99487.81
2023-04-04T14:18:44.692Z,99490.21
2023-04-04T14:23:47.199Z,99496.52
2023-04-04T14:28:51.863Z,99487.90
2023-04-04T14:33:54.557Z,99495.77
2023-04-04T14:38:56.830Z,99491.59
2023-04-04T14:43:59.294Z,99491.93
2023-04-04T14:49:03.062Z,99490.38
2023-04-04T14:54:05.186Z,99486.23
2023-04-04T14:59:08.187Z,99483.30
2023-04-04T15:04:11.479Z,99483.45
2023-04-04T15:09:13.321Z,99488.08
2023-04-04T15:14:14.967Z,99487.81
2023-04-04T15:19:16.687Z,99485.22
2023-04-04T15:24:18.454Z,99479.70
2023-04-04T15:29:20.374Z,99483.08
2023-04-04T15:34:22.035Z,99485.58
2023-04-04T15:39:23.789Z,99486.60
2023-04-04T15:44:25.758Z,99481.78
2023-04-04T15:49:28.313Z,99458.11
2023-04-04T15:54:31.985Z,99477.60
2023-04-04T15:59:34.412Z,99481.73
2023-04-04T16:04:36.061Z,99453.77
2023-04-04T16:09:37.723Z,99477.67
2023-04-04T16:14:39.347Z,99473.88
2023-04-04T16:19:41.374Z,99479.30
2023-04-04T16:24:43.026Z,99478.91
2023-04-04T16:29:44.787Z,99482.25
2023-04-04T16:34:46.796Z,99487.20
2023-04-04T16:39:48.998Z,99478.67
2023-04-04T16:44:50.861Z,99477.60
2023-04-04T16:49:52.557Z,99481.16
2023-04-04T16:54:55.000Z,99479.89
2023-04-04T16:59:57.265Z,99486.52
2023-04-04T17:04:58.978Z,99486.77
2023-04-04T17:10:01.128Z,99494.68
2023-04-04T17:15:04.703Z,99502.50
2023-04-04T17:20:07.378Z,99505.28
2023-04-04T17:25:09.491Z,99509.95
2023-04-04T17:30:12.854Z,99508.33
2023-04-04T17:35:17.674Z,99513.32
2023-04-04T17:40:19.644Z,99514.65
2023-04-04T17:45:21.389Z,99516.40
2023-04-04T17:50:23.088Z,99515.88
2023-04-04T17:55:24.951Z,99520.36
2023-04-04T18:00:27.253Z,99527.31
2023-04-04T18:05:29.209Z,99534.40
2023-04-04T18:10:31.660Z,99538.67
2023-04-04T18:15:33.741Z,99535.77
2023-04-04T18:20:36.555Z,99530.79
2023-04-04T18:25:38.390Z,99530.77
2023-04-04T18:30:40.266Z,99528.41
2023-04-04T18:35:42.036Z,99530.48
2023-04-04T18:40:46.497Z,99531.96
2023-04-04T18:45:48.612Z,99532.98
2023-04-04T18:50:51.585Z,99533.28
2023-04-04T18:55:53.542Z,99527.13
2023-04-04T19:00:58.580Z,99536.08
2023-04-04T19:06:01.597Z,99533.95
2023-04-04T19:11:03.308Z,99534.63
2023-04-04T19:16:05.651Z,99529.69
2023-04-04T19:21:08.826Z,99521.23
2023-04-04T19:26:11.843Z,99526.77
2023-04-04T19:31:21.617Z,99523.56
2023-04-04T19:36:23.933Z,99528.39
2023-04-04T19:41:39.961Z,99525.77
2023-04-04T19:46:41.658Z,99523.80
2023-04-04T19:51:48.933Z,99524.07
2023-04-04T19:56:50.810Z,99520.76
2023-04-04T20:02:00.251Z,99521.19
2023-04-04T20:07:02.696Z,99517.31
2023-04-04T20:12:07.237Z,99516.09
2023-04-04T20:17:09.657Z,99520.71
2023-04-04T20:22:11.617Z,99522.34
2023-04-04T20:27:23.662Z,99520.27
2023-04-04T20:32:25.298Z,99526.61
2023-04-04T20:37:28.758Z,99524.09
2023-04-04T20:42:37.887Z,99522.90
2023-04-04T20:47:51.630Z,99521.25
2023-04-04T20:53:02.055Z,99525.23
2023-04-04T20:58:23.319Z,99520.49
2023-04-04T21:03:25.171Z,99519.23
2023-04-04T21:08:29.459Z,99519.92
2023-04-04T21:13:41.710Z,99521.91
2023-04-04T21:18:43.953Z,99522.17
2023-04-04T21:23:47.074Z,99519.14
2023-04-04T21:28:49.859Z,99518.40
2023-04-04T21:33:56.149Z,99516.88
2023-04-04T21:39:00.734Z,99514.60
2023-04-04T21:44:10.270Z,99514.14
2023-04-04T21:49:12.783Z,99510.39
2023-04-04T21:54:15.443Z,99506.00
2023-04-04T21:59:18.705Z,99497.52
2023-04-04T22:04:20.390Z,99492.02
2023-04-04T22:09:25.877Z,99484.98
2023-04-04T22:14:30.501Z,99484.36
2023-04-04T22:19:43.172Z,99481.38
2023-04-04T22:24:44.918Z,99480.39
2023-04-04T22:29:46.706Z,99489.98
2023-04-04T22:34:48.938Z,99484.10
2023-04-04T22:39:50.816Z,99486.15
2023-04-04T22:44:52.573Z,99486.14
2023-04-04T22:49:56.312Z,99479.02
2023-04-04T22:54:59.648Z,99474.95
2023-04-04T23:00:01.543Z,99467.78
2023-04-04T23:05:04.025Z,99465.29
2023-04-04T23:10:12.790Z,99462.44
2023-04-04T23:15:19.270Z,99459.13
2023-04-04T23:20:21.117Z,99455.27
2023-04-04T23:25:28.429Z,99454.13
2023-04-04T23:30:30.271Z,99449.69
2023-04-04T23:35:37.775Z,99446.89
2023-04-04T23:40:41.021Z,99444.38
2023-04-04T23:45:43.525Z,99441.71
2023-04-04T23:50:47.042Z,99437.64
2023-04-04T23:55:49.178Z,99430.88
